createdAt,value
2019-04-10T00:01:09.754Z,19.73
2019-04-10T00:03:43.773Z,20.35
2019-04-10T00:06:17.890Z,19.65
2019-04-10T00:08:49.219Z,20.45
2019-04-10T00:11:20.789Z,19.27
2019-04-10T00:13:53.180Z,20.95
2019-04-10T00:16:24.702Z,20.08
2019-04-10T00:18:56.252Z,18.85
2019-04-10T00:21:27.699Z,20.08
2019-04-10T00:23:59.671Z,20.72
2019-04-10T00:26:31.988Z,20.00
2019-04-10T00:29:03.657Z,20.55
2019-04-10T00:31:35.477Z,19.27
2019-04-10T00:34:07.375Z,19.62
2019-04-10T00:36:39.416Z,20.02
2019-04-10T00:41:41.494Z,20.17
2019-04-10T00:44:15.304Z,19.92
2019-04-10T00:46:46.510Z,19.70
2019-04-10T00:49:18.060Z,20.30
2019-04-10T00:51:49.988Z,19.92
2019-04-10T00:54:21.753Z,20.12
2019-04-10T00:56:53.338Z,20.30
2019-04-10T00:59:24.815Z,19.73
2019-04-10T01:01:56.361Z,20.97
2019-04-10T01:04:29.064Z,20.15
2019-04-10T01:07:00.887Z,20.45
2019-04-10T01:09:33.205Z,19.77
2019-04-10T01:12:05.691Z,20.00
2019-04-10T01:14:38.225Z,20.50
2019-04-10T01:17:09.657Z,20.27
2019-04-10T01:19:41.877Z,19.92
2019-04-10T01:24:46.076Z,18.62
2019-04-10T01:27:17.998Z,19.90
2019-04-10T01:29:49.587Z,20.72
2019-04-10T01:32:21.436Z,20.85
2019-04-10T01:34:53.910Z,19.17
2019-04-10T01:37:25.289Z,18.80
2019-04-10T01:39:57.022Z,19.82
2019-04-10T01:42:28.589Z,20.90
2019-04-10T01:45:01.497Z,19.02
2019-04-10T01:47:33.313Z,20.60
2019-04-10T01:50:06.363Z,19.85
2019-04-10T01:52:37.747Z,19.35
2019-04-10T01:55:20.050Z,20.72
2019-04-10T01:57:44.186Z,19.82
2019-04-10T02:00:17.531Z,20.25
2019-04-10T02:02:51.798Z,18.95
2019-04-10T02:05:23.135Z,18.42
2019-04-10T02:08:03.264Z,19.65
2019-04-10T02:10:29.793Z,20.57
2019-04-10T02:13:01.557Z,19.62
2019-04-10T02:15:32.787Z,19.25
2019-04-10T02:18:05.338Z,18.95
2019-04-10T02:20:38.891Z,19.62
2019-04-10T02:23:10.206Z,20.95
2019-04-10T02:25:41.847Z,19.80
2019-04-10T02:28:13.528Z,20.02
2019-04-10T02:30:46.010Z,20.05
2019-04-10T02:33:17.900Z,19.42
2019-04-10T02:35:49.219Z,19.67
2019-04-10T02:38:37.416Z,19.20
2019-04-10T02:40:55.527Z,19.42
2019-04-10T02:43:27.385Z,19.80
2019-04-10T02:46:00.042Z,18.98
2019-04-10T02:48:32.120Z,18.98
2019-04-10T02:51:05.494Z,19.12
2019-04-10T02:53:39.337Z,19.52
2019-04-10T02:56:11.805Z,19.57
2019-04-10T02:58:44.440Z,19.52
2019-04-10T03:01:17.395Z,20.75
2019-04-10T03:03:50.131Z,20.43
2019-04-10T03:06:22.819Z,20.65
2019-04-10T03:09:07.574Z,19.67
2019-04-10T03:11:27.981Z,19.62
2019-04-10T03:14:01.374Z,19.57
2019-04-10T03:16:32.894Z,19.45
2019-04-10T03:19:05.406Z,19.95
2019-04-10T03:24:07.257Z,19.57
2019-04-10T03:26:39.487Z,18.85
2019-04-10T03:29:11.612Z,18.82
2019-04-10T03:31:45.051Z,19.23
2019-04-10T03:34:20.805Z,18.67
2019-04-10T03:36:51.770Z,18.60
2019-04-10T03:39:24.451Z,19.20
2019-04-10T03:41:56.791Z,19.02
2019-04-10T03:44:28.102Z,20.10
2019-04-10T03:47:00.720Z,18.30
2019-04-10T03:49:32.216Z,18.87
2019-04-10T03:52:03.344Z,18.48
2019-04-10T03:54:34.994Z,18.80
2019-04-10T03:57:07.469Z,19.12
2019-04-10T03:59:40.719Z,18.15
2019-04-10T04:02:15.614Z,18.50
2019-04-10T04:04:47.975Z,18.52
2019-04-10T04:07:19.722Z,17.87
2019-04-10T04:09:51.553Z,18.73
2019-04-10T04:12:22.901Z,17.75
2019-04-10T04:14:56.922Z,18.30
2019-04-10T04:17:28.704Z,18.15
2019-04-10T04:20:00.050Z,18.00
2019-04-10T04:22:32.674Z,19.00
2019-04-10T04:25:04.682Z,18.50
2019-04-10T04:27:36.347Z,18.23
2019-04-10T04:30:08.440Z,19.75
2019-04-10T04:35:11.264Z,18.65
2019-04-10T04:37:42.673Z,16.37
2019-04-10T04:40:14.239Z,17.50
2019-04-10T04:42:45.874Z,18.65
2019-04-10T04:45:17.530Z,17.85
2019-04-10T04:47:50.316Z,18.23
2019-04-10T04:50:21.975Z,17.77
2019-04-10T04:52:53.640Z,17.35
2019-04-10T04:55:26.069Z,17.45
2019-04-10T04:57:57.780Z,19.50
2019-04-10T05:00:32.285Z,18.15
2019-04-10T05:03:06.348Z,16.77
2019-04-10T05:05:39.046Z,17.20
2019-04-10T05:08:10.630Z,16.37
2019-04-10T05:10:42.074Z,19.02
2019-04-10T05:13:14.175Z,17.17
2019-04-10T05:15:45.716Z,16.17
2019-04-10T05:18:17.339Z,16.32
2019-04-10T05:20:50.817Z,16.93
2019-04-10T05:23:22.864Z,17.32
2019-04-10T05:25:54.562Z,17.77
2019-04-10T05:28:26.357Z,16.90
2019-04-10T09:52:32.250Z,16.45
2019-04-10T09:55:03.320Z,18.70
2019-04-10T10:07:49.017Z,21.55
2019-04-10T10:10:20.766Z,18.23
2019-04-10T10:12:52.681Z,18.65
2019-04-10T10:15:25.177Z,19.45
2019-04-10T10:17:57.113Z,19.07
2019-04-10T10:25:32.652Z,17.32
2019-04-10T10:28:04.966Z,17.60
2019-04-10T10:30:36.200Z,16.93
2019-04-10T10:33:07.927Z,17.00
2019-04-10T10:35:39.100Z,15.28
2019-04-10T10:38:10.805Z,16.57
2019-04-10T10:40:43.590Z,19.77
2019-04-10T10:43:14.754Z,19.12
2019-04-10T10:45:47.091Z,18.32
2019-04-10T10:48:21.746Z,17.82
2019-04-10T10:50:53.383Z,17.17
2019-04-10T10:53:26.215Z,17.90
2019-04-10T10:55:58.055Z,18.52
2019-04-10T10:58:30.018Z,17.65
2019-04-10T11:01:01.473Z,17.42
2019-04-10T11:03:34.203Z,18.37
2019-04-10T11:06:06.626Z,18.57
2019-04-10T11:08:39.719Z,18.85
2019-04-10T11:11:12.693Z,18.95
2019-04-10T11:13:45.066Z,19.27
2019-04-10T11:16:17.081Z,21.10
2019-04-10T11:18:50.804Z,21.17
2019-04-10T11:21:24.774Z,20.68
2019-04-10T11:23:56.192Z,19.73
2019-04-10T11:26:27.640Z,20.50
2019-04-10T11:31:31.679Z,23.40
2019-04-10T11:34:04.182Z,20.92
2019-04-10T11:36:36.191Z,21.23
2019-04-10T11:41:41.363Z,20.75
2019-04-10T11:44:16.584Z,21.02
2019-04-10T11:46:46.737Z,20.70
2019-04-10T11:49:20.219Z,23.52
2019-04-10T11:51:59.598Z,22.50
2019-04-10T11:54:31.687Z,21.15
2019-04-10T11:57:07.119Z,21.87
2019-04-10T11:59:45.601Z,21.93
2019-04-10T12:02:20.458Z,21.20
2019-04-10T12:04:55.804Z,22.32
2019-04-10T12:07:54.928Z,21.57
2019-04-10T12:12:46.603Z,20.62
2019-04-10T12:15:22.660Z,20.27
2019-04-10T12:18:00.371Z,20.30
2019-04-10T12:20:33.754Z,20.12
2019-04-10T12:23:08.441Z,20.08
2019-04-10T14:18:50.910Z,23.60
2019-04-10T14:21:22.021Z,22.45
2019-04-10T14:23:58.320Z,23.35
2019-04-10T14:26:43.724Z,22.75
2019-04-10T14:29:10.171Z,21.48
2019-04-10T14:31:44.647Z,21.12
2019-04-10T14:34:18.870Z,23.52
2019-04-10T14:36:52.886Z,20.92
2019-04-10T14:39:27.311Z,21.50
2019-04-10T14:42:00.156Z,20.83
2019-04-10T14:44:32.621Z,20.92
2019-04-10T14:47:04.399Z,20.95
2019-04-10T14:49:37.553Z,20.43
2019-04-10T14:52:08.829Z,21.90
2019-04-10T14:54:40.925Z,21.87
2019-04-10T14:57:12.839Z,20.82
2019-04-10T14:59:44.622Z,20.68
2019-04-10T15:04:49.075Z,20.62
2019-04-10T15:07:21.833Z,20.15
2019-04-10T15:09:55.322Z,20.57
2019-04-10T15:12:28.081Z,21.87
2019-04-10T15:15:03.851Z,22.00
2019-04-10T15:17:38.417Z,22.37
2019-04-10T15:20:11.157Z,22.82
2019-04-10T15:22:44.411Z,20.77
2019-04-10T15:25:17.277Z,23.25
2019-04-10T15:27:50.028Z,23.12
2019-04-10T15:30:22.289Z,20.45
2019-04-10T15:32:54.209Z,22.02
2019-04-10T15:35:26.515Z,22.65
2019-04-10T15:40:34.553Z,22.73
2019-04-10T15:43:06.650Z,24.45
2019-04-10T15:45:38.319Z,22.30
2019-04-10T15:48:10.639Z,23.18
2019-04-10T15:50:43.386Z,24.32
2019-04-10T15:53:15.950Z,24.67
2019-04-10T15:55:47.695Z,24.60
2019-04-10T15:58:21.506Z,21.70
2019-04-10T16:00:53.865Z,23.98
2019-04-10T16:03:26.180Z,24.70
2019-04-10T16:08:29.876Z,21.73
2019-04-10T16:11:07.669Z,20.02
2019-04-10T16:13:41.265Z,20.55
2019-04-10T16:16:30.584Z,20.17
2019-04-10T16:19:04.279Z,19.50
2019-04-10T16:21:36.834Z,19.10
2019-04-10T16:24:12.088Z,20.05
2019-04-10T16:26:44.233Z,20.72
2019-04-10T16:29:18.177Z,21.75
2019-04-10T16:31:53.116Z,22.13
2019-04-10T16:34:36.142Z,22.50
2019-04-10T16:37:12.599Z,23.20
2019-04-10T16:39:57.457Z,22.90
2019-04-10T16:42:20.206Z,22.65
2019-04-10T16:44:53.385Z,23.75
2019-04-10T16:47:32.302Z,23.50
2019-04-10T16:50:11.170Z,23.73
2019-04-10T16:52:43.872Z,25.25
2019-04-10T16:55:16.443Z,27.58
2019-04-10T16:57:49.238Z,29.52
2019-04-10T17:00:22.247Z,27.73
2019-04-10T17:02:54.510Z,27.60
2019-04-10T17:05:26.328Z,29.67
2019-04-10T17:07:59.415Z,25.48
2019-04-10T17:10:30.954Z,28.65
2019-04-10T17:13:07.247Z,32.08
2019-04-10T17:15:39.823Z,40.55
2019-04-10T17:18:11.821Z,29.40
2019-04-10T17:20:44.599Z,24.32
2019-04-10T17:25:53.372Z,24.00
2019-04-10T17:28:28.434Z,23.45
2019-04-10T17:31:04.889Z,22.52
2019-04-10T17:33:41.920Z,25.68
2019-04-10T17:36:13.584Z,26.45
2019-04-10T17:38:45.220Z,27.85
2019-04-10T17:41:17.805Z,29.63
2019-04-10T17:43:50.171Z,28.25
2019-04-10T17:46:27.051Z,29.98
2019-04-10T17:48:59.003Z,26.93
2019-04-10T17:51:32.729Z,24.85
2019-04-10T17:54:09.608Z,25.35
2019-04-10T17:56:46.570Z,22.80
2019-04-10T17:59:18.416Z,24.52
2019-04-10T18:01:51.515Z,24.67
2019-04-10T18:04:26.221Z,24.50
2019-04-10T18:07:01.208Z,23.15
2019-04-10T18:09:33.137Z,25.30
2019-04-10T18:12:08.017Z,25.62
2019-04-10T18:14:42.602Z,24.72
2019-04-10T18:17:18.590Z,27.62
2019-04-10T18:19:52.478Z,26.77
2019-04-10T18:22:24.737Z,27.70
2019-04-10T18:24:58.357Z,24.30
2019-04-10T18:27:30.419Z,23.95
2019-04-10T18:30:06.148Z,23.40
2019-04-10T18:32:43.611Z,22.25
2019-04-10T18:35:22.542Z,23.05
2019-04-10T18:38:03.515Z,21.30
2019-04-10T18:40:52.140Z,21.00
2019-04-10T18:43:16.048Z,20.12
2019-04-10T18:45:57.487Z,20.70
2019-04-10T18:48:28.217Z,19.87
2019-04-10T18:51:10.860Z,19.73
2019-04-10T18:53:46.280Z,20.30
2019-04-10T18:56:21.523Z,21.42
2019-04-10T18:59:02.683Z,19.35
2019-04-10T19:01:47.356Z,18.92
2019-04-10T19:04:24.450Z,18.90
2019-04-10T19:07:02.794Z,18.62
2019-04-10T19:09:39.055Z,18.02
2019-04-10T19:12:12.803Z,20.00
2019-04-10T19:14:44.820Z,20.02
2019-04-10T19:17:20.831Z,19.10
2019-04-10T19:19:52.674Z,21.68
2019-04-10T19:22:24.413Z,23.35
2019-04-10T19:25:02.962Z,22.40
2019-04-10T19:27:38.582Z,21.25
2019-04-10T19:30:33.813Z,20.68
2019-04-10T19:33:06.562Z,22.32
2019-04-10T19:35:39.263Z,21.45
2019-04-10T19:38:13.506Z,21.73
2019-04-10T19:40:45.894Z,21.57
2019-04-10T19:43:19.121Z,22.25
2019-04-10T19:45:52.299Z,21.23
2019-04-10T19:48:25.485Z,20.62
2019-04-10T19:51:01.327Z,21.75
2019-04-10T19:53:35.310Z,19.70
2019-04-10T19:56:06.632Z,19.50
2019-04-10T19:58:38.506Z,18.92
2019-04-10T20:01:11.461Z,20.82
2019-04-10T20:03:45.943Z,20.35
2019-04-10T20:06:18.453Z,24.12
2019-04-10T20:08:52.780Z,26.00
2019-04-10T20:11:35.659Z,23.90
2019-04-10T20:14:00.054Z,20.35
2019-04-10T20:16:35.361Z,19.85
2019-04-10T20:19:07.528Z,17.00
2019-04-10T20:21:39.749Z,20.08
2019-04-10T20:24:12.362Z,17.00
2019-04-10T20:29:15.190Z,12.90
2019-04-10T20:31:47.817Z,14.80
2019-04-10T20:34:19.469Z,16.07
2019-04-10T20:36:51.186Z,13.18
2019-04-10T20:39:25.283Z,10.28
2019-04-10T20:41:59.332Z,14.58
2019-04-10T20:44:30.294Z,12.73
2019-04-10T20:47:02.533Z,12.35
2019-04-10T20:49:35.015Z,13.00
2019-04-10T20:52:08.278Z,13.98
2019-04-10T20:54:39.563Z,14.07
2019-04-10T20:57:13.016Z,14.78
2019-04-10T20:59:44.678Z,11.55
2019-04-10T21:02:18.821Z,12.20
2019-04-10T21:04:56.614Z,12.53
2019-04-10T21:07:25.971Z,13.35
2019-04-10T21:09:57.022Z,13.10
2019-04-10T21:12:30.118Z,12.98
2019-04-10T21:15:01.490Z,12.53
2019-04-10T21:17:34.091Z,13.20
2019-04-10T21:20:07.854Z,15.23
2019-04-10T21:22:39.080Z,15.20
2019-04-10T21:25:11.430Z,15.05
2019-04-10T21:27:44.103Z,12.35
2019-04-10T21:30:32.660Z,13.50
2019-04-10T21:33:05.928Z,13.72
2019-04-10T21:35:43.746Z,14.90
2019-04-10T21:38:15.251Z,14.63
2019-04-10T21:40:47.454Z,13.78
2019-04-10T21:43:20.297Z,13.00
2019-04-10T21:45:52.091Z,15.28
2019-04-10T21:48:24.586Z,18.73
2019-04-10T21:53:26.548Z,18.30
2019-04-10T21:55:57.775Z,20.27
2019-04-10T21:58:30.426Z,19.65
2019-04-10T22:01:03.522Z,18.85
2019-04-10T22:03:36.346Z,24.00
2019-04-10T22:06:23.950Z,18.15
2019-04-10T22:09:04.109Z,22.70
2019-04-10T22:11:37.221Z,15.20
2019-04-10T22:14:08.862Z,14.87
2019-04-10T22:16:40.203Z,11.48
2019-04-10T22:19:12.216Z,9.68
2019-04-10T22:24:15.843Z,12.47
2019-04-10T22:26:47.485Z,13.88
2019-04-10T22:29:19.568Z,17.60
2019-04-10T22:34:22.729Z,13.53
2019-04-10T22:36:53.869Z,15.13
2019-04-10T22:39:25.663Z,12.75
2019-04-10T22:41:57.074Z,13.18
2019-04-10T22:44:36.646Z,16.90
2019-04-10T22:47:03.006Z,10.18
2019-04-10T22:49:34.968Z,10.20
2019-04-10T22:52:06.822Z,12.93
2019-04-10T22:54:38.826Z,16.45
2019-04-10T22:57:10.496Z,13.30
2019-04-10T22:59:42.573Z,13.68
2019-04-10T23:02:15.041Z,14.23
2019-04-10T23:04:47.512Z,13.38
2019-04-10T23:07:19.873Z,12.07
2019-04-10T23:09:54.834Z,8.63
2019-04-10T23:12:26.534Z,7.12
2019-04-10T23:14:58.739Z,8.75
2019-04-10T23:17:30.081Z,13.83
2019-04-10T23:20:02.762Z,7.55
2019-04-10T23:22:33.883Z,6.72
2019-04-10T23:25:07.873Z,12.73
2019-04-10T23:27:38.868Z,13.80
2019-04-10T23:30:12.857Z,13.00
2019-04-10T23:32:44.310Z,11.85
2019-04-10T23:35:15.357Z,14.20
2019-04-10T23:37:46.984Z,12.88
2019-04-10T23:40:18.896Z,11.10
2019-04-10T23:43:02.649Z,13.70
2019-04-10T23:45:23.868Z,11.00
2019-04-10T23:47:56.176Z,10.23
2019-04-10T23:50:28.117Z,10.48
2019-04-10T23:53:00.324Z,12.50
2019-04-10T23:55:32.257Z,9.30
